createdAt,value
2019-01-03T00:00:11.598Z,56.14
2019-01-03T00:03:15.181Z,55.45
2019-01-03T00:06:22.177Z,55.26
2019-01-03T00:09:24.652Z,55.61
2019-01-03T00:12:23.200Z,55.50
2019-01-03T00:15:32.557Z,56.34
2019-01-03T00:18:31.438Z,56.11
2019-01-03T00:21:40.803Z,56.18
2019-01-03T00:24:48.829Z,56.50
2019-01-03T00:27:58.854Z,56.50
2019-01-03T00:31:00.918Z,56.56
2019-01-03T00:37:28.873Z,56.89
2019-01-03T00:40:38.054Z,57.35
2019-01-03T00:43:31.863Z,57.42
2019-01-03T00:46:31.937Z,57.14
2019-01-03T00:49:36.062Z,56.98
2019-01-03T00:52:45.454Z,56.92
2019-01-03T00:55:48.034Z,56.65
2019-01-03T00:58:57.399Z,56.82
2019-01-03T01:01:59.615Z,57.83
2019-01-03T01:05:08.088Z,57.53
2019-01-03T01:08:10.478Z,57.07
2019-01-03T01:11:19.817Z,57.22
2019-01-03T01:14:21.583Z,57.06
2019-01-03T01:17:31.043Z,57.28
2019-01-03T01:24:02.703Z,57.24
2019-01-03T01:27:04.596Z,56.95
2019-01-03T01:30:06.350Z,56.62
2019-01-03T01:33:06.295Z,56.72
2019-01-03T01:36:15.403Z,56.46
2019-01-03T01:39:17.614Z,56.57
2019-01-03T01:42:26.974Z,56.21
2019-01-03T01:45:29.110Z,56.66
2019-01-03T01:48:31.232Z,56.87
2019-01-03T01:51:40.697Z,57.33
2019-01-03T01:54:48.425Z,57.14
2019-01-03T01:57:57.787Z,56.73
2019-01-03T02:00:59.979Z,56.61
2019-01-03T02:03:56.843Z,56.69
2019-01-03T02:07:06.306Z,56.74
2019-01-03T02:10:08.777Z,56.54
2019-01-03T02:13:31.113Z,56.67
2019-01-03T02:16:24.415Z,56.89
2019-01-03T02:19:26.183Z,56.77
2019-01-03T02:22:36.467Z,56.43
2019-01-03T02:25:35.489Z,56.76
2019-01-03T02:28:44.631Z,56.78
2019-01-03T02:31:46.324Z,56.87
2019-01-03T02:34:48.374Z,58.17
2019-01-03T02:38:16.995Z,58.39
2019-01-03T02:41:21.966Z,58.14
2019-01-03T02:44:22.896Z,58.01
2019-01-03T02:47:32.002Z,57.85
2019-01-03T02:50:34.474Z,57.76
2019-01-03T02:53:44.083Z,57.27
2019-01-03T02:56:39.335Z,57.15
2019-01-03T02:59:48.755Z,57.70
2019-01-03T03:02:45.525Z,58.62
2019-01-03T03:05:54.982Z,58.03
2019-01-03T03:08:45.111Z,57.85
2019-01-03T03:11:54.706Z,57.93
2019-01-03T03:14:56.492Z,57.83
2019-01-03T03:18:05.608Z,58.37
2019-01-03T03:21:07.598Z,58.05
2019-01-03T03:24:16.719Z,57.65
2019-01-03T03:27:18.666Z,57.60
2019-01-03T03:30:20.796Z,58.21
2019-01-03T03:33:23.105Z,56.98
2019-01-03T03:36:24.949Z,57.56
2019-01-03T03:39:34.065Z,57.47
2019-01-03T03:46:39.028Z,59.30
2019-01-03T03:49:47.381Z,58.01
2019-01-03T03:52:56.971Z,58.67
2019-01-03T03:55:58.964Z,58.27
2019-01-03T03:58:57.920Z,58.08
2019-01-03T04:01:58.000Z,58.46
2019-01-03T04:04:56.647Z,59.06
2019-01-03T04:08:05.744Z,59.15
2019-01-03T04:11:08.115Z,59.33
2019-01-03T04:14:17.470Z,59.13
2019-01-03T04:17:17.735Z,59.60
2019-01-03T04:20:19.806Z,59.16
2019-01-03T04:23:14.569Z,58.90
2019-01-03T04:26:23.765Z,58.41
2019-01-03T04:29:28.444Z,58.57
2019-01-03T04:32:28.628Z,58.22
2019-01-03T04:35:30.367Z,57.57
2019-01-03T04:38:39.481Z,58.19
2019-01-03T04:41:39.916Z,57.50
2019-01-03T04:44:49.022Z,57.70
2019-01-03T04:47:43.308Z,57.92
2019-01-03T04:50:52.664Z,58.51
2019-01-03T04:53:54.120Z,58.17
2019-01-03T04:57:03.227Z,57.93
2019-01-03T05:00:11.083Z,58.45
2019-01-03T05:03:20.519Z,59.20
2019-01-03T05:06:22.920Z,58.74
2019-01-03T05:09:32.105Z,59.04
2019-01-03T05:12:39.724Z,58.90
2019-01-03T05:15:41.632Z,59.15
2019-01-03T05:18:50.728Z,59.18
2019-01-03T05:21:50.818Z,58.93
2019-01-03T05:25:00.423Z,57.75
2019-01-03T05:28:08.318Z,57.94
2019-01-03T05:31:10.497Z,58.04
2019-01-03T05:34:19.868Z,58.18
2019-01-03T05:37:21.790Z,59.20
2019-01-03T05:40:31.669Z,58.40
2019-01-03T05:43:29.972Z,59.13
2019-01-03T05:46:33.645Z,58.55
2019-01-03T05:49:42.750Z,58.53
2019-01-03T05:52:35.985Z,58.60
2019-01-03T05:55:45.094Z,57.67
2019-01-03T06:01:55.392Z,58.15
2019-01-03T06:05:04.816Z,58.42
2019-01-03T06:08:06.863Z,59.35
2019-01-03T06:11:16.209Z,59.47
2019-01-03T06:14:18.071Z,58.57
2019-01-03T06:17:15.475Z,59.26
2019-01-03T06:20:25.310Z,59.85
2019-01-03T06:23:24.726Z,59.13
2019-01-03T06:26:34.340Z,59.32
2019-01-03T06:29:35.870Z,59.28
2019-01-03T06:32:37.303Z,58.61
2019-01-03T06:35:43.812Z,58.71
2019-01-03T06:38:52.920Z,59.01
2019-01-03T06:41:55.246Z,59.50
2019-01-03T06:45:04.342Z,59.66
2019-01-03T06:48:06.561Z,59.73
2019-01-03T06:51:07.464Z,59.14
2019-01-03T06:54:09.242Z,58.92
2019-01-03T06:57:18.367Z,58.69
2019-01-03T07:00:16.484Z,58.53
2019-01-03T07:03:18.471Z,58.45
2019-01-03T07:06:28.059Z,58.81
2019-01-03T07:09:28.320Z,57.94
2019-01-03T07:12:37.731Z,58.73
2019-01-03T07:15:39.214Z,58.31
2019-01-03T07:18:41.137Z,58.65
2019-01-03T07:24:39.394Z,58.73
2019-01-03T07:27:36.921Z,58.26
2019-01-03T07:30:27.755Z,58.69
2019-01-03T07:33:26.642Z,58.89
2019-01-03T07:36:29.985Z,58.48
2019-01-03T07:39:39.189Z,58.65
2019-01-03T07:42:40.959Z,58.62
2019-01-03T07:45:50.044Z,58.83
2019-01-03T07:48:51.772Z,58.85
2019-01-03T07:52:01.441Z,58.68
2019-01-03T07:55:01.787Z,59.24
2019-01-03T08:01:32.188Z,58.51
2019-01-03T08:04:33.648Z,58.08
2019-01-03T08:07:36.028Z,57.91
2019-01-03T08:10:38.462Z,58.79
2019-01-03T08:13:41.010Z,58.44
2019-01-03T08:16:50.335Z,57.89
2019-01-03T08:19:52.668Z,57.90
2019-01-03T08:23:02.028Z,57.78
2019-01-03T08:26:02.426Z,57.67
2019-01-03T08:29:04.148Z,57.94
2019-01-03T08:31:51.715Z,57.85
2019-01-03T08:34:53.635Z,57.58
2019-01-03T08:38:02.742Z,58.06
2019-01-03T08:41:04.587Z,57.96
2019-01-03T08:44:06.504Z,59.00
2019-01-03T08:47:35.339Z,57.97
2019-01-03T08:50:31.282Z,57.83
2019-01-03T08:53:40.631Z,58.08
2019-01-03T08:56:42.083Z,57.91
2019-01-03T08:59:44.350Z,57.81
2019-01-03T09:02:53.661Z,58.45
2019-01-03T09:05:55.230Z,57.92
2019-01-03T09:09:04.332Z,57.66
2019-01-03T09:11:58.175Z,57.84
2019-01-03T09:15:07.475Z,57.24
2019-01-03T09:18:09.683Z,57.85
2019-01-03T09:21:18.888Z,57.92
2019-01-03T09:24:20.332Z,56.94
2019-01-03T09:27:29.451Z,56.97
2019-01-03T09:30:31.700Z,56.81
2019-01-03T09:33:25.343Z,57.32
2019-01-03T09:36:25.948Z,56.78
2019-01-03T09:39:35.068Z,56.95
2019-01-03T09:45:47.276Z,57.44
2019-01-03T09:48:30.416Z,57.73
2019-01-03T09:51:20.579Z,57.46
2019-01-03T09:54:03.695Z,57.48
2019-01-03T09:56:53.900Z,56.93
2019-01-03T09:59:37.358Z,57.23
2019-01-03T10:02:27.547Z,57.97
2019-01-03T10:05:10.873Z,57.60
2019-01-03T10:08:01.360Z,57.65
2019-01-03T10:10:46.512Z,57.50
2019-01-03T10:13:36.771Z,57.16
2019-01-03T10:16:19.862Z,57.45
2019-01-03T10:19:10.323Z,57.09
2019-01-03T10:21:53.021Z,56.79
2019-01-03T10:24:36.779Z,56.24
2019-01-03T10:27:20.014Z,55.94
2019-01-03T10:30:03.314Z,55.62
2019-01-03T10:32:53.524Z,56.05
2019-01-03T10:35:36.367Z,55.74
2019-01-03T10:38:26.673Z,55.91
2019-01-03T10:41:09.244Z,55.58
2019-01-03T10:43:52.147Z,55.42
2019-01-03T10:46:33.355Z,55.30
2019-01-03T10:49:16.629Z,55.54
2019-01-03T10:52:07.190Z,54.97
2019-01-03T10:54:50.359Z,56.08
2019-01-03T10:57:21.586Z,55.93
2019-01-03T11:00:05.079Z,56.19
2019-01-03T11:02:56.521Z,55.73
2019-01-03T11:05:39.182Z,55.97
2019-01-03T11:08:29.447Z,55.63
2019-01-03T11:11:12.552Z,55.40
2019-01-03T11:14:03.143Z,55.34
2019-01-03T11:16:46.092Z,56.11
2019-01-03T11:19:36.670Z,55.79
2019-01-03T11:22:17.856Z,55.55
2019-01-03T11:25:08.172Z,55.26
2019-01-03T11:27:51.374Z,56.63
2019-01-03T11:30:41.847Z,55.35
2019-01-03T11:33:44.296Z,54.76
2019-01-03T11:36:34.495Z,54.94
2019-01-03T11:39:17.299Z,53.96
2019-01-03T11:42:00.286Z,54.21
2019-01-03T11:44:51.056Z,54.12
2019-01-03T11:47:33.665Z,54.35
2019-01-03T11:50:24.048Z,54.38
2019-01-03T11:53:06.604Z,53.79
2019-01-03T11:55:50.200Z,54.28
2019-01-03T11:58:33.241Z,54.22
2019-01-03T12:01:23.429Z,54.22
2019-01-03T12:04:08.565Z,54.38
2019-01-03T12:10:00.566Z,54.75
2019-01-03T12:12:50.793Z,55.35
2019-01-03T12:15:34.040Z,55.25
2019-01-03T12:18:25.232Z,55.59
2019-01-03T12:21:08.318Z,55.39
2019-01-03T12:23:51.246Z,55.67
2019-01-03T12:26:41.437Z,55.57
2019-01-03T12:29:24.308Z,55.39
2019-01-03T12:32:14.607Z,55.55
2019-01-03T12:34:57.763Z,56.10
2019-01-03T12:37:40.432Z,56.60
2019-01-03T12:40:23.642Z,56.74
2019-01-03T12:43:07.040Z,56.75
2019-01-03T12:45:57.246Z,57.19
2019-01-03T12:48:45.457Z,57.36
2019-01-03T12:51:25.968Z,57.22
2019-01-03T12:54:08.864Z,57.31
2019-01-03T12:56:59.351Z,57.64
2019-01-03T12:59:40.979Z,58.33
2019-01-03T13:05:32.672Z,58.69
2019-01-03T13:08:22.936Z,59.02
2019-01-03T13:11:05.896Z,58.87
2019-01-03T13:13:56.446Z,58.52
2019-01-03T13:16:39.853Z,58.82
2019-01-03T13:19:30.136Z,59.13
2019-01-03T13:22:13.104Z,59.01
2019-01-03T13:25:03.343Z,59.68
2019-01-03T13:27:46.666Z,60.27
2019-01-03T13:30:37.193Z,60.40
2019-01-03T13:33:19.877Z,60.55
2019-01-03T13:36:10.102Z,59.98
2019-01-03T13:38:53.301Z,60.21
2019-01-03T13:41:45.189Z,60.91
2019-01-03T13:44:28.248Z,60.86
2019-01-03T13:47:11.550Z,61.45
2019-01-03T13:49:54.519Z,61.72
2019-01-03T13:52:45.300Z,61.65
2019-01-03T13:55:28.682Z,61.77
2019-01-03T13:58:19.237Z,61.76
2019-01-03T14:01:07.964Z,62.20
2019-01-03T14:03:58.485Z,62.34
2019-01-03T14:06:41.706Z,62.51
2019-01-03T14:09:32.410Z,62.17
2019-01-03T14:12:15.292Z,62.22
2019-01-03T14:15:25.284Z,62.43
2019-01-03T14:18:07.958Z,62.25
2019-01-03T14:20:58.181Z,61.94
2019-01-03T14:26:11.930Z,62.37
2019-01-03T14:28:54.185Z,62.30
2019-01-03T14:31:37.171Z,62.56
2019-01-03T14:34:27.872Z,62.92
2019-01-03T14:36:58.860Z,62.26
2019-01-03T14:39:49.290Z,62.59
2019-01-03T14:42:32.025Z,62.83
2019-01-03T14:45:22.211Z,62.65
2019-01-03T14:48:05.750Z,62.82
2019-01-03T14:53:58.051Z,63.14
2019-01-03T14:56:40.703Z,63.06
2019-01-03T14:59:30.974Z,63.00
2019-01-03T15:02:12.414Z,62.68
2019-01-03T15:05:03.490Z,62.82
2019-01-03T15:07:46.704Z,63.12
2019-01-03T15:10:36.911Z,62.92
2019-01-03T15:13:20.192Z,63.57
2019-01-03T15:19:12.350Z,64.08
2019-01-03T15:21:56.671Z,64.70
2019-01-03T15:24:46.845Z,64.68
2019-01-03T15:27:29.874Z,64.65
2019-01-03T15:30:20.065Z,65.39
2019-01-03T15:33:03.070Z,65.25
2019-01-03T15:35:53.585Z,64.89
2019-01-03T15:38:43.144Z,65.29
2019-01-03T15:41:33.351Z,64.94
2019-01-03T15:44:15.992Z,65.07
2019-01-03T15:47:06.283Z,64.36
2019-01-03T15:49:49.121Z,64.27
2019-01-03T15:52:20.126Z,64.31
2019-01-03T15:55:03.269Z,64.40
2019-01-03T15:57:53.952Z,64.61
2019-01-03T16:00:37.731Z,65.44
2019-01-03T16:03:28.235Z,65.42
2019-01-03T16:06:11.515Z,65.36
2019-01-03T16:09:02.009Z,65.35
2019-01-03T16:11:44.819Z,65.25
2019-01-03T16:14:35.008Z,65.77
2019-01-03T16:17:18.212Z,65.47
2019-01-03T16:20:08.973Z,65.42
2019-01-03T16:22:52.278Z,65.90
2019-01-03T16:25:42.703Z,65.94
2019-01-03T16:28:25.881Z,65.76
2019-01-03T16:31:16.390Z,65.78
2019-01-03T16:33:59.243Z,65.49
2019-01-03T16:36:49.451Z,65.20
2019-01-03T16:39:34.540Z,65.70
2019-01-03T16:42:18.020Z,66.05
2019-01-03T16:45:08.617Z,65.85
2019-01-03T16:47:51.232Z,66.33
2019-01-03T16:50:41.518Z,66.32
2019-01-03T16:53:24.743Z,66.78
2019-01-03T16:56:15.155Z,66.52
2019-01-03T16:58:58.606Z,65.89
2019-01-03T17:01:48.818Z,66.55
2019-01-03T17:04:31.799Z,66.69
2019-01-03T17:07:15.158Z,66.58
2019-01-03T17:13:47.516Z,66.10
2019-01-03T17:16:30.878Z,66.33
2019-01-03T17:19:13.885Z,66.34
2019-01-03T17:22:04.352Z,66.51
2019-01-03T17:24:47.520Z,66.40
2019-01-03T17:27:30.510Z,66.08
2019-01-03T17:30:20.701Z,66.29
2019-01-03T17:33:05.599Z,66.11
2019-01-03T17:35:56.042Z,66.06
2019-01-03T17:38:39.457Z,66.18
2019-01-03T17:41:30.293Z,66.52
2019-01-03T17:44:13.765Z,66.34
2019-01-03T17:47:03.972Z,65.97
2019-01-03T17:49:47.041Z,66.00
2019-01-03T17:55:44.739Z,65.92
2019-01-03T17:58:54.450Z,66.43
2019-01-03T18:01:37.787Z,66.27
2019-01-03T18:04:28.027Z,66.24
2019-01-03T18:07:11.184Z,66.37
2019-01-03T18:10:02.638Z,66.33
2019-01-03T18:13:04.500Z,66.10
2019-01-03T18:15:54.928Z,65.54
2019-01-03T18:18:38.824Z,65.27
2019-01-03T18:21:21.565Z,65.72
2019-01-03T18:24:05.632Z,65.51
2019-01-03T18:29:24.528Z,65.41
2019-01-03T18:32:08.752Z,65.33
2019-01-03T18:34:51.304Z,65.55
2019-01-03T18:37:42.362Z,65.51
2019-01-03T18:40:25.449Z,65.42
2019-01-03T18:43:15.695Z,65.91
2019-01-03T18:45:58.320Z,65.67
2019-01-03T18:48:48.545Z,65.88
2019-01-03T18:51:31.989Z,65.73
2019-01-03T18:54:22.216Z,66.04
2019-01-03T18:57:05.641Z,66.38
2019-01-03T18:59:55.857Z,66.15
2019-01-03T19:02:39.086Z,66.18
2019-01-03T19:05:29.332Z,65.99
2019-01-03T19:08:12.555Z,65.73
2019-01-03T19:11:23.482Z,65.90
2019-01-03T19:14:06.840Z,65.91
2019-01-03T19:20:05.384Z,65.89
2019-01-03T19:22:55.875Z,66.33
2019-01-03T19:25:37.163Z,66.24
2019-01-03T19:28:20.700Z,66.13
2019-01-03T19:31:03.937Z,66.12
2019-01-03T19:33:47.606Z,66.12
2019-01-03T19:36:38.105Z,66.22
2019-01-03T19:39:21.403Z,66.18
2019-01-03T19:42:02.617Z,66.10
2019-01-03T19:44:53.143Z,66.25
2019-01-03T19:47:35.968Z,66.32
2019-01-03T19:50:26.195Z,66.35
2019-01-03T19:53:09.374Z,66.50
2019-01-03T19:55:59.562Z,66.80
2019-01-03T19:58:31.045Z,66.40
2019-01-03T20:01:21.232Z,66.52
2019-01-03T20:04:04.553Z,66.66
2019-01-03T20:06:54.742Z,66.77
2019-01-03T20:09:38.284Z,66.63
2019-01-03T20:12:28.859Z,66.26
2019-01-03T20:15:17.381Z,66.46
2019-01-03T20:18:07.754Z,66.21
2019-01-03T20:20:53.063Z,66.39
2019-01-03T20:23:42.567Z,66.99
2019-01-03T20:26:26.251Z,66.62
2019-01-03T20:28:57.416Z,66.44
2019-01-03T20:31:39.960Z,67.09
2019-01-03T20:34:23.244Z,66.90
2019-01-03T20:37:13.492Z,66.40
2019-01-03T20:39:56.828Z,66.43
2019-01-03T20:42:39.696Z,66.41
2019-01-03T20:48:30.103Z,67.37
2019-01-03T20:51:21.268Z,66.90
2019-01-03T20:54:04.149Z,66.74
2019-01-03T20:59:56.914Z,67.10
2019-01-03T21:02:47.169Z,67.42
2019-01-03T21:05:30.293Z,67.45
2019-01-03T21:08:01.624Z,67.29
2019-01-03T21:10:45.299Z,67.43
2019-01-03T21:13:35.798Z,67.34
2019-01-03T21:16:19.075Z,67.67
2019-01-03T21:19:10.295Z,67.64
2019-01-03T21:21:53.488Z,67.04
2019-01-03T21:24:43.740Z,67.16
2019-01-03T21:27:27.013Z,67.70
2019-01-03T21:33:20.923Z,67.37
2019-01-03T21:36:03.431Z,67.61
2019-01-03T21:38:53.725Z,67.70
2019-01-03T21:41:36.651Z,67.50
2019-01-03T21:44:26.938Z,67.48
2019-01-03T21:47:09.675Z,67.50
2019-01-03T21:50:01.594Z,67.70
2019-01-03T21:52:42.848Z,67.57
2019-01-03T21:55:33.309Z,67.60
2019-01-03T21:58:16.860Z,67.74
2019-01-03T22:01:07.514Z,67.44
2019-01-03T22:03:50.566Z,67.36
2019-01-03T22:06:40.755Z,67.12
2019-01-03T22:09:23.832Z,67.40
2019-01-03T22:12:14.092Z,67.74
2019-01-03T22:14:56.532Z,67.60
2019-01-03T22:17:27.569Z,67.61
2019-01-03T22:19:58.955Z,67.64
2019-01-03T22:22:49.155Z,67.64
2019-01-03T22:25:31.917Z,67.53
2019-01-03T22:28:02.877Z,67.70
2019-01-03T22:30:46.358Z,67.35
2019-01-03T22:33:37.439Z,67.33
2019-01-03T22:36:19.824Z,66.95
2019-01-03T22:39:10.308Z,67.58
2019-01-03T22:41:53.662Z,67.49
2019-01-03T22:44:44.363Z,67.82
2019-01-03T22:47:27.907Z,67.53
2019-01-03T22:50:18.420Z,67.83
2019-01-03T22:53:01.178Z,67.74
2019-01-03T22:58:58.370Z,67.44
2019-01-03T23:01:48.552Z,67.88
2019-01-03T23:04:31.222Z,67.70
2019-01-03T23:10:23.009Z,67.76
2019-01-03T23:13:13.198Z,68.12
2019-01-03T23:15:56.290Z,68.00
2019-01-03T23:18:46.748Z,67.59
2019-01-03T23:21:29.862Z,67.61
2019-01-03T23:27:27.568Z,68.32
2019-01-03T23:30:17.777Z,67.84
2019-01-03T23:33:01.130Z,68.55
2019-01-03T23:35:51.340Z,68.91
2019-01-03T23:38:22.626Z,68.86
2019-01-03T23:41:12.839Z,68.79
2019-01-03T23:43:43.797Z,68.69
2019-01-03T23:46:34.355Z,69.01
2019-01-03T23:49:17.876Z,69.01
2019-01-03T23:52:00.374Z,68.99
2019-01-03T23:54:50.588Z,68.57
2019-01-03T23:57:21.599Z,67.83
